createdAt,value
2022-11-26T00:00:50.779Z,4.85
2022-11-26T00:03:19.104Z,5.32
2022-11-26T00:05:49.430Z,5.60
2022-11-26T00:08:20.944Z,5.05
2022-11-26T00:10:50.923Z,5.28
2022-11-26T00:13:21.347Z,5.13
2022-11-26T00:15:51.068Z,5.05
2022-11-26T00:18:19.767Z,5.00
2022-11-26T00:20:51.445Z,5.53
2022-11-26T00:23:21.497Z,5.28
2022-11-26T00:25:51.764Z,4.43
2022-11-26T00:28:29.588Z,4.75
2022-11-26T00:31:00.591Z,4.68
2022-11-26T00:33:29.034Z,4.90
2022-11-26T00:35:59.208Z,4.30
2022-11-26T00:38:27.298Z,4.80
2022-11-26T00:40:54.889Z,5.43
2022-11-26T00:43:22.536Z,4.82
2022-11-26T00:45:50.517Z,5.22
2022-11-26T00:48:19.501Z,5.10
2022-11-26T00:50:49.584Z,4.63
2022-11-26T00:53:20.095Z,4.13
2022-11-26T00:55:49.929Z,3.97
2022-11-26T00:58:24.911Z,4.57
2022-11-26T01:01:00.794Z,4.57
2022-11-26T01:03:30.353Z,4.18
2022-11-26T01:05:59.701Z,3.85
2022-11-26T01:08:31.097Z,4.30
2022-11-26T01:10:59.327Z,4.15
2022-11-26T01:13:27.750Z,5.22
2022-11-26T01:15:55.940Z,4.80
2022-11-26T01:18:24.271Z,4.18
2022-11-26T01:20:53.174Z,4.15
2022-11-26T01:23:21.153Z,4.35
2022-11-26T01:25:49.154Z,3.97
2022-11-26T01:28:18.663Z,3.72
2022-11-26T01:30:46.622Z,4.25
2022-11-26T01:33:14.184Z,3.53
2022-11-26T01:35:41.767Z,3.45
2022-11-26T01:38:13.846Z,4.60
2022-11-26T01:40:56.140Z,3.08
2022-11-26T01:43:27.847Z,3.60
2022-11-26T01:45:56.055Z,4.85
2022-11-26T01:48:27.347Z,4.20
2022-11-26T01:51:04.288Z,3.65
2022-11-26T01:53:43.068Z,3.83
2022-11-26T01:56:31.760Z,4.20
2022-11-26T01:59:07.691Z,3.42
2022-11-26T02:01:35.827Z,4.22
2022-11-26T02:04:16.583Z,4.30
2022-11-26T02:06:45.919Z,4.13
2022-11-26T02:09:15.181Z,3.55
2022-11-26T02:11:43.386Z,3.55
2022-11-26T02:14:16.926Z,3.47
2022-11-26T02:16:57.742Z,4.25
2022-11-26T02:19:55.810Z,4.45
2022-11-26T02:22:43.383Z,3.97
2022-11-26T02:25:20.480Z,3.97
2022-11-26T02:28:21.123Z,4.07
2022-11-26T02:30:57.375Z,4.90
2022-11-26T02:33:30.283Z,4.35
2022-11-26T02:36:02.675Z,4.35
2022-11-26T02:38:31.123Z,4.40
2022-11-26T02:40:58.659Z,4.28
2022-11-26T02:43:27.490Z,4.05
2022-11-26T02:46:00.707Z,4.50
2022-11-26T02:48:32.809Z,4.50
2022-11-26T02:51:04.848Z,4.50
2022-11-26T02:53:34.904Z,3.97
2022-11-26T02:56:06.516Z,5.00
2022-11-26T02:58:35.392Z,4.43
2022-11-26T03:01:10.088Z,4.47
2022-11-26T03:03:41.582Z,4.57
2022-11-26T03:06:11.741Z,4.40
2022-11-26T03:08:40.097Z,4.47
2022-11-26T03:11:07.905Z,5.32
2022-11-26T03:13:35.480Z,4.47
2022-11-26T03:16:05.316Z,4.10
2022-11-26T03:18:32.939Z,3.97
2022-11-26T03:21:01.251Z,4.50
2022-11-26T03:23:28.833Z,4.68
2022-11-26T03:25:56.372Z,3.88
2022-11-26T03:28:23.905Z,4.82
2022-11-26T03:30:51.598Z,4.25
2022-11-26T03:33:20.691Z,4.57
2022-11-26T03:35:49.182Z,4.82
2022-11-26T03:38:18.039Z,4.53
2022-11-26T03:40:45.790Z,5.55
2022-11-26T03:43:13.292Z,4.22
2022-11-26T03:45:40.890Z,5.18
2022-11-26T03:48:08.450Z,4.78
2022-11-26T03:50:37.527Z,4.82
2022-11-26T03:53:05.074Z,4.78
2022-11-26T03:55:32.604Z,4.57
2022-11-26T03:58:00.102Z,4.47
2022-11-26T04:00:27.778Z,5.32
2022-11-26T04:02:55.383Z,4.38
2022-11-26T04:05:22.976Z,4.45
2022-11-26T04:07:52.005Z,5.25
2022-11-26T04:10:19.788Z,5.03
2022-11-26T04:12:47.309Z,4.93
2022-11-26T04:15:14.906Z,5.13
2022-11-26T04:17:42.425Z,5.00
2022-11-26T04:20:10.633Z,5.30
2022-11-26T04:22:38.160Z,6.28
2022-11-26T04:25:07.739Z,5.13
2022-11-26T04:27:35.274Z,6.03
2022-11-26T04:30:02.812Z,6.07
2022-11-26T04:32:30.262Z,5.90
2022-11-26T04:34:57.808Z,5.43
2022-11-26T04:37:25.340Z,5.75
2022-11-26T04:39:52.854Z,5.97
2022-11-26T04:42:21.684Z,6.32
2022-11-26T04:44:49.177Z,5.70
2022-11-26T04:47:16.832Z,5.53
2022-11-26T04:49:44.455Z,5.75
2022-11-26T04:52:12.116Z,6.60
2022-11-26T04:54:39.816Z,5.40
2022-11-26T04:57:07.582Z,5.70
2022-11-26T04:59:36.399Z,5.60
2022-11-26T05:02:04.024Z,6.45
2022-11-26T05:04:31.540Z,6.13
2022-11-26T05:06:59.039Z,6.82
2022-11-26T05:09:26.643Z,5.63
2022-11-26T05:11:54.219Z,6.32
2022-11-26T05:14:21.796Z,5.65
2022-11-26T05:16:50.698Z,5.63
2022-11-26T05:19:18.315Z,6.10
2022-11-26T05:21:45.873Z,6.00
2022-11-26T05:24:13.406Z,6.95
2022-11-26T05:26:40.969Z,6.28
2022-11-26T05:29:08.532Z,6.03
2022-11-26T05:31:36.086Z,6.20
2022-11-26T05:34:05.175Z,7.35
2022-11-26T05:36:32.673Z,6.72
2022-11-26T05:39:00.204Z,6.50
2022-11-26T05:41:27.691Z,5.20
2022-11-26T05:43:55.218Z,6.78
2022-11-26T05:46:22.915Z,6.20
2022-11-26T05:48:50.396Z,6.55
2022-11-26T05:51:19.316Z,5.97
2022-11-26T05:53:46.812Z,6.22
2022-11-26T05:56:14.403Z,6.18
2022-11-26T05:58:43.338Z,8.07
2022-11-26T06:01:11.471Z,7.38
2022-11-26T06:03:39.578Z,6.75
2022-11-26T06:06:07.626Z,6.80
2022-11-26T06:08:36.489Z,6.22
2022-11-26T06:11:04.012Z,6.63
2022-11-26T06:13:31.586Z,6.07
2022-11-26T06:15:59.569Z,6.82
2022-11-26T06:18:27.099Z,7.30
2022-11-26T06:20:54.600Z,7.05
2022-11-26T06:23:22.104Z,8.40
2022-11-26T06:25:51.017Z,7.47
2022-11-26T06:28:18.546Z,9.32
2022-11-26T06:30:46.587Z,8.57
2022-11-26T06:33:14.460Z,8.57
2022-11-26T06:35:41.954Z,8.43
2022-11-26T06:38:09.850Z,7.72
2022-11-26T06:40:37.390Z,7.45
2022-11-26T06:43:06.228Z,7.85
2022-11-26T06:45:35.730Z,8.95
2022-11-26T06:48:03.376Z,7.72
2022-11-26T06:50:30.906Z,10.02
2022-11-26T06:52:58.434Z,11.38
2022-11-26T06:55:26.009Z,9.65
2022-11-26T06:57:53.536Z,10.07
2022-11-26T07:00:23.049Z,11.32
2022-11-26T07:02:50.639Z,11.13
2022-11-26T07:05:18.457Z,10.00
2022-11-26T07:07:46.069Z,9.40
2022-11-26T07:10:13.664Z,8.50
2022-11-26T07:12:41.156Z,8.73
2022-11-26T07:15:10.047Z,8.15
2022-11-26T07:17:38.966Z,9.40
2022-11-26T07:20:08.047Z,9.00
2022-11-26T07:22:35.712Z,9.20
2022-11-26T07:25:04.494Z,8.93
2022-11-26T07:27:33.594Z,9.85
2022-11-26T07:30:01.156Z,9.88
2022-11-26T07:32:30.656Z,9.90
2022-11-26T07:35:00.478Z,10.25
2022-11-26T07:37:27.991Z,8.43
2022-11-26T07:39:55.768Z,8.90
2022-11-26T07:42:23.329Z,9.02
2022-11-26T07:44:50.937Z,9.63
2022-11-26T07:47:18.468Z,9.50
2022-11-26T07:49:46.046Z,8.60
2022-11-26T07:52:14.990Z,9.40
2022-11-26T07:54:42.901Z,9.63
2022-11-26T07:57:11.247Z,9.00
2022-11-26T07:59:38.740Z,8.88
2022-11-26T08:02:06.301Z,8.55
2022-11-26T08:04:33.838Z,9.80
2022-11-26T08:07:23.249Z,8.43
2022-11-26T08:09:53.483Z,8.73
2022-11-26T08:12:21.070Z,11.02
2022-11-26T08:14:48.609Z,9.13
2022-11-26T08:17:16.128Z,9.23
2022-11-26T08:19:43.682Z,9.55
2022-11-26T08:22:11.261Z,8.90
2022-11-26T08:24:40.877Z,8.15
2022-11-26T08:27:08.590Z,8.18
2022-11-26T08:29:37.194Z,7.85
2022-11-26T08:32:05.192Z,9.52
2022-11-26T08:34:33.008Z,8.15
2022-11-26T08:37:00.719Z,8.02
2022-11-26T08:39:28.307Z,8.00
2022-11-26T08:41:57.208Z,7.18
2022-11-26T08:44:24.837Z,7.45
2022-11-26T08:46:52.616Z,7.68
2022-11-26T08:49:20.378Z,7.85
2022-11-26T08:51:48.048Z,6.93
2022-11-26T08:54:15.592Z,7.78
2022-11-26T08:56:43.184Z,6.72
2022-11-26T08:59:12.075Z,6.70
2022-11-26T09:01:39.960Z,6.63
2022-11-26T09:04:07.607Z,6.13
2022-11-26T09:06:37.595Z,6.45
2022-11-26T09:09:17.269Z,6.38
2022-11-26T09:11:48.140Z,27.20
2022-11-26T09:14:19.350Z,14.10
2022-11-26T09:16:47.638Z,9.32
2022-11-26T09:19:16.055Z,7.07
2022-11-26T09:21:44.119Z,6.85
2022-11-26T09:24:11.849Z,7.38
2022-11-26T09:26:39.698Z,8.75
2022-11-26T09:29:07.377Z,8.35
2022-11-26T09:31:42.752Z,9.23
2022-11-26T09:34:22.820Z,9.15
2022-11-26T09:36:50.408Z,9.35
2022-11-26T09:39:18.526Z,8.63
2022-11-26T09:41:51.160Z,8.23
2022-11-26T09:44:26.298Z,26.70
2022-11-26T09:47:12.867Z,44.28
2022-11-26T09:49:50.014Z,13.00
2022-11-26T09:52:21.073Z,8.95
2022-11-26T09:54:51.312Z,8.50
2022-11-26T09:57:24.129Z,8.60
2022-11-26T10:02:22.017Z,7.80
2022-11-26T10:04:49.875Z,8.20
2022-11-26T10:07:40.671Z,8.48
2022-11-26T10:10:17.432Z,10.95
2022-11-26T10:13:18.022Z,8.10
2022-11-26T10:15:57.424Z,6.22
2022-11-26T10:18:37.119Z,6.38
2022-11-26T10:21:32.425Z,6.60
2022-11-26T10:24:15.735Z,7.22
2022-11-26T10:26:44.523Z,6.00
2022-11-26T10:29:22.391Z,5.57
2022-11-26T10:31:51.857Z,5.82
2022-11-26T10:34:29.312Z,5.75
2022-11-26T10:36:58.035Z,5.93
2022-11-26T10:39:25.574Z,6.10
2022-11-26T10:41:53.305Z,5.30
2022-11-26T10:44:33.757Z,5.00
2022-11-26T10:47:21.435Z,4.25
2022-11-26T10:49:52.027Z,4.00
2022-11-26T10:52:24.441Z,4.60
2022-11-26T10:55:08.872Z,4.72
2022-11-26T10:57:38.692Z,5.45
2022-11-26T11:00:07.844Z,17.58
2022-11-26T11:02:39.175Z,6.60
2022-11-26T11:05:10.698Z,4.40
2022-11-26T11:07:43.968Z,4.22
2022-11-26T11:10:18.752Z,4.28
2022-11-26T11:12:50.379Z,4.18
2022-11-26T11:15:24.033Z,4.15
2022-11-26T11:17:57.576Z,3.67
2022-11-26T11:20:38.009Z,4.07
2022-11-26T11:23:18.118Z,3.25
2022-11-26T11:25:48.994Z,3.60
2022-11-26T11:28:20.788Z,3.92
2022-11-26T11:31:00.291Z,4.17
2022-11-26T11:33:29.644Z,4.75
2022-11-26T11:36:05.041Z,4.20
2022-11-26T11:38:34.461Z,4.20
2022-11-26T11:41:05.927Z,2.90
2022-11-26T11:43:37.791Z,3.15
2022-11-26T11:46:19.205Z,3.85
2022-11-26T11:48:59.051Z,3.38
2022-11-26T11:51:38.863Z,3.53
2022-11-26T11:54:18.532Z,3.30
2022-11-26T11:56:52.446Z,3.95
2022-11-26T12:00:11.963Z,3.63
2022-11-26T12:03:04.869Z,3.65
2022-11-26T12:05:43.965Z,8.20
2022-11-26T12:08:27.916Z,7.45
2022-11-26T12:11:06.656Z,5.88
2022-11-26T12:13:42.740Z,4.57
2022-11-26T12:16:14.092Z,4.13
2022-11-26T12:18:47.141Z,3.58
2022-11-26T12:21:17.059Z,3.92
2022-11-26T12:23:54.363Z,3.92
2022-11-26T12:26:28.527Z,3.60
2022-11-26T12:29:03.487Z,3.88
2022-11-26T12:31:37.591Z,3.58
2022-11-26T12:34:11.328Z,3.05
2022-11-26T12:36:46.311Z,3.13
2022-11-26T12:39:23.468Z,3.13
2022-11-26T12:41:57.368Z,3.63
2022-11-26T12:44:31.317Z,5.63
2022-11-26T12:47:10.935Z,5.60
2022-11-26T12:49:46.678Z,6.10
2022-11-26T12:52:29.520Z,6.72
2022-11-26T12:57:37.308Z,4.30
2022-11-26T13:00:11.471Z,4.43
2022-11-26T13:02:42.469Z,4.22
2022-11-26T13:05:19.419Z,3.47
2022-11-26T13:08:03.793Z,3.45
2022-11-26T13:10:42.413Z,3.65
2022-11-26T13:13:18.697Z,3.28
2022-11-26T13:15:50.996Z,3.28
2022-11-26T13:18:25.151Z,3.25
2022-11-26T13:21:05.990Z,2.75
2022-11-26T13:23:48.239Z,2.75
2022-11-26T13:26:29.876Z,3.28
2022-11-26T13:29:23.088Z,3.17
2022-11-26T13:32:13.093Z,2.95
2022-11-26T13:34:59.545Z,3.13
2022-11-26T13:37:55.997Z,3.25
2022-11-26T13:40:44.304Z,3.33
2022-11-26T13:43:38.546Z,2.95
2022-11-26T13:46:13.216Z,3.45
2022-11-26T13:48:52.787Z,3.20
2022-11-26T13:51:27.622Z,3.35
2022-11-26T13:54:02.036Z,2.90
2022-11-26T13:56:32.834Z,3.50
2022-11-26T13:59:05.598Z,3.08
2022-11-26T14:04:07.793Z,3.28
2022-11-26T14:06:35.814Z,2.80
2022-11-26T14:09:05.607Z,2.50
2022-11-26T14:11:56.931Z,3.58
2022-11-26T14:14:37.613Z,2.50
2022-11-26T14:17:14.608Z,2.50
2022-11-26T14:20:06.357Z,2.10
2022-11-26T14:22:35.803Z,2.80
2022-11-26T14:25:06.582Z,3.13
2022-11-26T14:27:35.562Z,2.50
2022-11-26T14:30:18.109Z,3.15
2022-11-26T14:32:53.082Z,3.63
2022-11-26T14:35:30.658Z,3.63
2022-11-26T14:38:01.673Z,3.65
2022-11-26T14:40:30.925Z,3.30
2022-11-26T14:43:16.596Z,3.78
2022-11-26T14:45:47.862Z,4.47
2022-11-26T14:48:23.758Z,4.97
2022-11-26T14:50:51.950Z,5.25
2022-11-26T14:53:21.734Z,4.40
2022-11-26T14:55:51.048Z,5.07
2022-11-26T14:58:20.896Z,3.88
2022-11-26T15:01:07.720Z,3.42
2022-11-26T15:03:35.574Z,4.80
2022-11-26T15:06:03.372Z,4.53
2022-11-26T15:08:30.916Z,4.85
2022-11-26T15:11:01.835Z,4.65
2022-11-26T15:13:32.621Z,4.15
2022-11-26T15:16:01.694Z,5.20
2022-11-26T15:18:33.385Z,5.45
2022-11-26T15:21:03.137Z,5.22
2022-11-26T15:23:32.843Z,5.20
2022-11-26T15:26:01.211Z,4.90
2022-11-26T15:28:29.120Z,5.65
2022-11-26T15:30:59.015Z,5.13
2022-11-26T15:33:28.698Z,5.32
2022-11-26T15:35:57.846Z,5.03
2022-11-26T15:38:27.461Z,5.85
2022-11-26T15:40:57.508Z,7.15
2022-11-26T15:43:30.466Z,5.97
2022-11-26T15:46:00.655Z,6.13
2022-11-26T15:48:50.990Z,8.35
2022-11-26T15:51:33.784Z,9.68
2022-11-26T15:54:03.842Z,9.88
2022-11-26T15:56:35.078Z,11.05
2022-11-26T15:59:06.629Z,12.70
2022-11-26T16:01:37.374Z,12.30
2022-11-26T16:04:06.465Z,8.73
2022-11-26T16:06:37.624Z,6.80
2022-11-26T16:09:26.318Z,5.75
2022-11-26T16:12:00.162Z,7.22
2022-11-26T16:14:33.131Z,6.70
2022-11-26T16:17:07.968Z,6.63
2022-11-26T16:19:37.370Z,8.18
2022-11-26T16:22:07.259Z,8.85
2022-11-26T16:24:38.678Z,8.63
2022-11-26T16:27:24.575Z,8.85
2022-11-26T16:29:52.107Z,16.10
2022-11-26T16:32:20.114Z,16.90
2022-11-26T16:34:47.719Z,11.68
2022-11-26T16:37:21.430Z,11.82
2022-11-26T16:39:49.963Z,9.48
2022-11-26T16:42:19.213Z,8.15
2022-11-26T16:44:46.930Z,8.65
2022-11-26T16:47:19.801Z,8.98
2022-11-26T16:49:47.300Z,10.10
2022-11-26T16:52:17.718Z,11.68
2022-11-26T16:54:47.214Z,11.35
2022-11-26T16:57:17.408Z,8.85
2022-11-26T16:59:46.418Z,8.60
2022-11-26T17:02:17.411Z,7.93
2022-11-26T17:04:45.249Z,10.18
2022-11-26T17:07:14.980Z,16.00
2022-11-26T17:09:43.633Z,12.40
2022-11-26T17:12:18.021Z,8.82
2022-11-26T17:14:46.285Z,12.65
2022-11-26T17:17:20.363Z,10.52
2022-11-26T17:19:51.501Z,9.73
2022-11-26T17:22:20.163Z,8.73
2022-11-26T17:24:47.693Z,8.43
2022-11-26T17:27:18.717Z,7.97
2022-11-26T17:29:46.836Z,7.63
2022-11-26T17:32:17.001Z,7.75
2022-11-26T17:34:45.380Z,9.52
2022-11-26T17:37:15.602Z,9.45
2022-11-26T17:39:43.793Z,9.30
2022-11-26T17:42:11.293Z,8.38
2022-11-26T17:44:40.150Z,7.70
2022-11-26T17:47:17.719Z,9.02
2022-11-26T17:49:46.280Z,11.20
2022-11-26T17:52:13.789Z,9.13
2022-11-26T17:54:41.685Z,10.57
2022-11-26T17:57:11.202Z,10.90
2022-11-26T17:59:40.901Z,12.25
2022-11-26T18:02:09.317Z,14.07
2022-11-26T18:04:36.989Z,12.82
2022-11-26T18:07:07.820Z,10.50
2022-11-26T18:09:35.860Z,9.05
2022-11-26T18:12:04.471Z,7.82
2022-11-26T18:14:35.458Z,9.13
2022-11-26T18:17:05.724Z,11.15
2022-11-26T18:19:33.244Z,13.63
2022-11-26T18:22:00.767Z,12.80
2022-11-26T18:24:28.304Z,10.82
2022-11-26T18:26:56.791Z,10.20
2022-11-26T18:29:24.887Z,9.95
2022-11-26T18:31:52.831Z,9.70
2022-11-26T18:34:22.115Z,10.13
2022-11-26T18:36:53.663Z,9.07
2022-11-26T18:39:21.659Z,8.90
2022-11-26T18:41:49.198Z,9.50
2022-11-26T18:44:16.731Z,9.25
2022-11-26T18:46:44.501Z,10.20
2022-11-26T18:49:12.075Z,9.93
2022-11-26T18:51:40.932Z,10.48
2022-11-26T18:54:08.454Z,10.20
2022-11-26T18:56:36.364Z,11.15
2022-11-26T18:59:03.835Z,10.10
2022-11-26T19:01:32.849Z,9.38
2022-11-26T19:04:00.449Z,9.55
2022-11-26T19:06:30.352Z,9.75
2022-11-26T19:09:01.035Z,8.98
2022-11-26T19:11:29.126Z,9.10
2022-11-26T19:13:58.065Z,9.98
2022-11-26T19:16:26.470Z,10.07
2022-11-26T19:18:54.415Z,10.27
2022-11-26T19:21:24.115Z,11.00
2022-11-26T19:23:52.354Z,10.60
2022-11-26T19:26:22.312Z,11.02
2022-11-26T19:28:50.798Z,11.73
2022-11-26T19:31:20.156Z,11.32
2022-11-26T19:33:48.906Z,10.82
2022-11-26T19:36:17.879Z,9.48
2022-11-26T19:38:46.476Z,9.57
2022-11-26T19:41:14.011Z,10.07
2022-11-26T19:43:43.426Z,10.65
2022-11-26T19:46:12.822Z,10.43
2022-11-26T19:48:42.234Z,10.48
2022-11-26T19:51:11.264Z,11.65
2022-11-26T19:53:38.976Z,10.10
2022-11-26T19:56:11.817Z,11.02
2022-11-26T20:01:09.941Z,9.82
2022-11-26T20:03:38.056Z,11.13
2022-11-26T20:06:07.229Z,11.68
2022-11-26T20:08:35.220Z,14.18
2022-11-26T20:11:02.870Z,15.13
2022-11-26T20:13:30.441Z,15.15
2022-11-26T20:15:58.011Z,14.20
2022-11-26T20:18:27.313Z,14.07
2022-11-26T20:20:59.119Z,14.60
2022-11-26T20:23:27.296Z,14.63
2022-11-26T20:25:55.437Z,13.73
2022-11-26T20:28:23.529Z,12.70
2022-11-26T20:30:51.724Z,13.77
2022-11-26T20:33:19.491Z,13.27
2022-11-26T20:35:48.355Z,12.85
2022-11-26T20:38:15.846Z,14.30
2022-11-26T20:40:44.069Z,13.48
2022-11-26T20:43:11.727Z,13.88
2022-11-26T20:45:39.481Z,13.85
2022-11-26T20:48:07.346Z,13.75
2022-11-26T20:50:34.893Z,13.45
2022-11-26T20:53:03.846Z,13.75
2022-11-26T20:55:31.403Z,12.73
2022-11-26T20:57:58.922Z,12.13
2022-11-26T21:00:27.791Z,12.68
2022-11-26T21:02:55.542Z,12.25
2022-11-26T21:05:23.613Z,11.70
2022-11-26T21:07:51.819Z,12.35
2022-11-26T21:10:25.070Z,12.00
2022-11-26T21:12:52.584Z,12.30
2022-11-26T21:15:20.083Z,12.10
2022-11-26T21:17:47.689Z,10.52
2022-11-26T21:20:15.726Z,10.88
2022-11-26T21:22:43.244Z,10.80
2022-11-26T21:25:10.944Z,10.85
2022-11-26T21:27:39.917Z,10.25
2022-11-26T21:30:08.672Z,11.82
2022-11-26T21:32:36.240Z,11.13
2022-11-26T21:35:03.756Z,11.70
2022-11-26T21:37:31.259Z,13.20
2022-11-26T21:39:58.784Z,12.98
2022-11-26T21:42:26.310Z,12.57
2022-11-26T21:44:55.163Z,11.50
2022-11-26T21:47:22.654Z,11.65
2022-11-26T21:49:50.214Z,11.85
2022-11-26T21:52:17.784Z,12.40
2022-11-26T21:54:45.335Z,11.23
2022-11-26T21:57:12.889Z,10.98
2022-11-26T21:59:40.737Z,10.73
2022-11-26T22:02:12.982Z,11.15
2022-11-26T22:04:40.664Z,10.10
2022-11-26T22:07:08.460Z,11.43
2022-11-26T22:09:36.700Z,11.40
2022-11-26T22:12:04.305Z,11.25
2022-11-26T22:14:31.829Z,10.65
2022-11-26T22:16:59.314Z,10.73
2022-11-26T22:19:28.179Z,12.25
2022-11-26T22:21:55.802Z,12.05
2022-11-26T22:24:23.306Z,12.48
2022-11-26T22:26:50.816Z,11.23
2022-11-26T22:29:20.121Z,12.57
2022-11-26T22:31:48.526Z,12.88
2022-11-26T22:34:18.509Z,12.15
2022-11-26T22:36:47.448Z,11.73
2022-11-26T22:39:17.375Z,11.55
2022-11-26T22:41:45.968Z,10.95
2022-11-26T22:44:14.351Z,12.38
2022-11-26T22:46:41.900Z,11.15
2022-11-26T22:49:12.834Z,11.98
2022-11-26T22:51:40.685Z,10.68
2022-11-26T22:54:12.849Z,12.07
2022-11-26T22:56:40.843Z,11.32
2022-11-26T22:59:11.781Z,11.35
2022-11-26T23:01:39.363Z,11.38
2022-11-26T23:04:09.127Z,11.98
2022-11-26T23:06:37.538Z,10.77
2022-11-26T23:09:07.250Z,12.55
2022-11-26T23:11:37.684Z,11.93
2022-11-26T23:14:07.465Z,11.65
2022-11-26T23:16:36.187Z,11.90
2022-11-26T23:19:04.749Z,11.57
2022-11-26T23:21:35.246Z,11.77
2022-11-26T23:24:02.852Z,12.10
2022-11-26T23:26:32.816Z,10.95
2022-11-26T23:29:03.297Z,13.10
2022-11-26T23:31:32.677Z,10.95
2022-11-26T23:34:00.632Z,11.30
2022-11-26T23:36:29.116Z,12.68
2022-11-26T23:38:57.239Z,10.73
2022-11-26T23:41:24.756Z,11.98
2022-11-26T23:43:52.243Z,11.45
2022-11-26T23:46:23.448Z,12.10
2022-11-26T23:48:51.884Z,11.40
2022-11-26T23:51:24.037Z,11.57
2022-11-26T23:53:53.332Z,11.05
2022-11-26T23:56:22.722Z,11.95
2022-11-26T23:58:51.191Z,11.65
